createdAt,value
2023-07-03T00:00:19.932Z,100.00
2023-07-03T00:02:55.057Z,100.00
2023-07-03T00:05:23.217Z,100.00
2023-07-03T00:07:50.999Z,100.00
2023-07-03T00:10:19.095Z,100.00
2023-07-03T00:12:46.283Z,100.00
2023-07-03T00:15:14.761Z,100.00
2023-07-03T00:17:45.786Z,100.00
2023-07-03T00:20:16.704Z,100.00
2023-07-03T00:22:45.445Z,100.00
2023-07-03T00:25:13.017Z,100.00
2023-07-03T00:27:40.034Z,100.00
2023-07-03T00:30:12.112Z,100.00
2023-07-03T00:32:39.135Z,100.00
2023-07-03T00:35:08.072Z,100.00
2023-07-03T00:37:36.059Z,100.00
2023-07-03T00:40:05.648Z,100.00
2023-07-03T00:42:32.481Z,100.00
2023-07-03T00:45:00.201Z,100.00
2023-07-03T00:47:29.270Z,100.00
2023-07-03T00:49:56.498Z,100.00
2023-07-03T00:52:23.629Z,100.00
2023-07-03T00:54:51.141Z,100.00
2023-07-03T00:57:18.898Z,100.00
2023-07-03T00:59:46.528Z,100.00
2023-07-03T01:02:27.296Z,100.00
2023-07-03T01:05:19.103Z,100.00
2023-07-03T01:07:47.284Z,100.00
2023-07-03T01:10:19.982Z,100.00
2023-07-03T01:12:59.923Z,100.00
2023-07-03T01:15:31.518Z,100.00
2023-07-03T01:18:02.896Z,100.00
2023-07-03T01:20:35.399Z,100.00
2023-07-03T01:23:12.571Z,100.00
2023-07-03T01:25:43.485Z,100.00
2023-07-03T01:28:13.858Z,100.00
2023-07-03T01:30:43.463Z,100.00
2023-07-03T01:33:15.833Z,100.00
2023-07-03T01:35:43.333Z,100.00
2023-07-03T01:38:11.246Z,100.00
2023-07-03T01:40:40.439Z,100.00
2023-07-03T01:43:07.842Z,100.00
2023-07-03T01:45:40.723Z,100.00
2023-07-03T01:48:08.151Z,100.00
2023-07-03T01:50:37.845Z,100.00
2023-07-03T01:53:12.220Z,100.00
2023-07-03T01:55:47.680Z,100.00
2023-07-03T01:58:24.058Z,100.00
2023-07-03T02:00:56.437Z,100.00
2023-07-03T02:03:37.343Z,100.00
2023-07-03T02:06:15.284Z,100.00
2023-07-03T02:08:43.689Z,100.00
2023-07-03T02:11:23.139Z,100.00
2023-07-03T02:13:54.341Z,100.00
2023-07-03T02:16:25.702Z,100.00
2023-07-03T02:18:52.746Z,100.00
2023-07-03T02:21:19.628Z,100.00
2023-07-03T02:23:47.056Z,100.00
2023-07-03T02:26:15.413Z,100.00
2023-07-03T02:28:43.080Z,100.00
2023-07-03T02:31:12.323Z,100.00
2023-07-03T02:33:39.321Z,100.00
2023-07-03T02:36:07.165Z,100.00
2023-07-03T02:38:34.689Z,100.00
2023-07-03T02:41:03.516Z,100.00
2023-07-03T02:43:33.759Z,100.00
2023-07-03T02:46:11.043Z,100.00
2023-07-03T02:48:38.488Z,100.00
2023-07-03T02:51:08.963Z,100.00
2023-07-03T02:53:36.191Z,100.00
2023-07-03T02:56:10.163Z,100.00
2023-07-03T02:58:41.970Z,100.00
2023-07-03T03:01:12.596Z,100.00
2023-07-03T03:03:39.896Z,100.00
2023-07-03T03:06:08.220Z,100.00
2023-07-03T03:08:35.538Z,100.00
2023-07-03T03:11:04.404Z,100.00
2023-07-03T03:13:32.384Z,100.00
2023-07-03T03:16:00.327Z,100.00
2023-07-03T03:18:27.472Z,100.00
2023-07-03T03:20:54.898Z,100.00
2023-07-03T03:23:22.174Z,100.00
2023-07-03T03:25:49.454Z,100.00
2023-07-03T03:28:17.003Z,100.00
2023-07-03T03:30:44.498Z,100.00
2023-07-03T03:33:12.352Z,100.00
2023-07-03T03:35:39.468Z,100.00
2023-07-03T03:38:11.219Z,100.00
2023-07-03T03:40:38.462Z,100.00
2023-07-03T03:43:09.455Z,100.00
2023-07-03T03:45:39.517Z,100.00
2023-07-03T03:48:06.710Z,100.00
2023-07-03T03:50:33.873Z,100.00
2023-07-03T03:53:01.154Z,100.00
2023-07-03T03:55:28.504Z,100.00
2023-07-03T03:57:55.581Z,100.00
2023-07-03T04:00:23.085Z,100.00
2023-07-03T04:02:50.049Z,100.00
2023-07-03T04:05:17.171Z,100.00
2023-07-03T04:07:45.317Z,100.00
2023-07-03T04:10:12.727Z,100.00
2023-07-03T04:12:39.944Z,100.00
2023-07-03T04:15:08.798Z,100.00
2023-07-03T04:17:36.057Z,100.00
2023-07-03T04:20:07.796Z,100.00
2023-07-03T04:22:35.341Z,100.00
2023-07-03T04:25:03.495Z,100.00
2023-07-03T04:27:30.384Z,100.00
2023-07-03T04:29:57.643Z,100.00
2023-07-03T04:32:24.849Z,100.00
2023-07-03T04:34:51.856Z,100.00
2023-07-03T04:37:18.804Z,100.00
2023-07-03T04:39:45.707Z,100.00
2023-07-03T04:42:14.910Z,100.00
2023-07-03T04:44:43.904Z,100.00
2023-07-03T04:47:11.984Z,100.00
2023-07-03T04:49:38.920Z,100.00
2023-07-03T04:52:07.703Z,100.00
2023-07-03T04:54:34.789Z,100.00
2023-07-03T04:57:02.042Z,100.00
2023-07-03T04:59:29.380Z,100.00
2023-07-03T05:01:57.194Z,100.00
2023-07-03T05:04:25.151Z,100.00
2023-07-03T05:06:52.537Z,100.00
2023-07-03T05:09:19.631Z,100.00
2023-07-03T05:11:49.915Z,100.00
2023-07-03T05:14:17.610Z,100.00
2023-07-03T05:16:44.472Z,100.00
2023-07-03T05:19:11.519Z,100.00
2023-07-03T05:21:38.573Z,100.00
2023-07-03T05:24:05.741Z,100.00
2023-07-03T05:26:32.795Z,100.00
2023-07-03T05:28:59.876Z,100.00
2023-07-03T05:31:27.039Z,100.00
2023-07-03T05:33:53.988Z,100.00
2023-07-03T05:36:21.026Z,100.00
2023-07-03T05:38:47.900Z,100.00
2023-07-03T05:41:16.293Z,100.00
2023-07-03T05:43:43.300Z,100.00
2023-07-03T05:46:10.887Z,100.00
2023-07-03T05:48:37.834Z,100.00
2023-07-03T05:51:05.019Z,100.00
2023-07-03T05:53:31.953Z,100.00
2023-07-03T05:55:59.785Z,100.00
2023-07-03T05:58:28.193Z,100.00
2023-07-03T06:00:56.323Z,100.00
2023-07-03T06:03:26.049Z,100.00
2023-07-03T06:05:53.962Z,100.00
2023-07-03T06:08:21.089Z,100.00
2023-07-03T06:10:48.239Z,99.91
2023-07-03T06:13:15.559Z,100.00
2023-07-03T06:15:43.467Z,99.13
2023-07-03T06:18:10.760Z,99.42
2023-07-03T06:20:39.028Z,99.42
2023-07-03T06:23:07.523Z,98.75
2023-07-03T06:25:35.081Z,98.47
2023-07-03T06:28:02.201Z,97.70
2023-07-03T06:30:29.245Z,96.52
2023-07-03T06:32:56.325Z,95.92
2023-07-03T06:35:23.321Z,96.47
2023-07-03T06:37:53.630Z,96.75
2023-07-03T06:40:20.802Z,96.82
2023-07-03T06:42:47.855Z,96.07
2023-07-03T06:45:19.105Z,95.90
2023-07-03T06:47:46.258Z,94.21
2023-07-03T06:50:13.738Z,95.04
2023-07-03T06:52:43.579Z,95.33
2023-07-03T06:55:10.951Z,95.25
2023-07-03T06:57:38.130Z,93.71
2023-07-03T07:00:07.220Z,92.88
2023-07-03T07:02:34.768Z,92.71
2023-07-03T07:05:03.389Z,92.91
2023-07-03T07:07:31.149Z,93.72
2023-07-03T07:09:58.147Z,92.58
2023-07-03T07:12:25.379Z,92.01
2023-07-03T07:14:52.230Z,92.11
2023-07-03T07:17:19.227Z,91.37
2023-07-03T07:19:46.629Z,91.37
2023-07-03T07:22:13.779Z,91.04
2023-07-03T07:24:40.781Z,90.50
2023-07-03T07:27:08.998Z,90.29
2023-07-03T07:29:36.064Z,89.08
2023-07-03T07:32:03.090Z,88.96
2023-07-03T07:34:30.130Z,90.51
2023-07-03T07:36:57.218Z,90.49
2023-07-03T07:39:26.191Z,89.26
2023-07-03T07:41:53.356Z,90.04
2023-07-03T07:44:20.534Z,90.39
2023-07-03T07:46:47.783Z,86.04
2023-07-03T07:49:14.912Z,88.70
2023-07-03T07:51:42.184Z,87.58
2023-07-03T07:54:09.256Z,86.18
2023-07-03T07:56:36.329Z,86.36
2023-07-03T07:59:03.573Z,85.74
2023-07-03T08:01:31.044Z,87.70
2023-07-03T08:03:58.250Z,84.91
2023-07-03T08:06:25.592Z,83.22
2023-07-03T08:08:52.627Z,83.34
2023-07-03T08:11:19.886Z,84.07
2023-07-03T08:13:47.025Z,83.32
2023-07-03T08:16:16.687Z,82.13
2023-07-03T08:18:46.267Z,81.54
2023-07-03T08:21:14.864Z,82.46
2023-07-03T08:23:42.046Z,81.90
2023-07-03T08:26:18.601Z,83.45
2023-07-03T08:28:46.284Z,82.55
2023-07-03T08:31:13.356Z,78.97
2023-07-03T08:33:40.536Z,78.53
2023-07-03T08:38:38.168Z,78.88
2023-07-03T08:41:05.470Z,82.05
2023-07-03T08:43:39.150Z,82.10
2023-07-03T08:46:12.661Z,81.44
2023-07-03T08:48:41.782Z,77.51
2023-07-03T08:51:14.024Z,78.40
2023-07-03T08:53:44.574Z,78.59
2023-07-03T08:56:15.492Z,79.34
2023-07-03T08:58:43.149Z,77.39
2023-07-03T09:01:29.802Z,78.36
2023-07-03T09:04:34.252Z,79.94
2023-07-03T09:07:06.774Z,82.69
2023-07-03T09:10:00.416Z,81.12
2023-07-03T09:12:41.562Z,77.27
2023-07-03T09:15:19.980Z,77.21
2023-07-03T09:17:49.196Z,77.86
2023-07-03T09:20:17.650Z,78.21
2023-07-03T09:23:06.183Z,74.92
2023-07-03T09:25:47.169Z,77.66
2023-07-03T09:28:14.208Z,76.15
2023-07-03T09:30:41.407Z,76.01
2023-07-03T09:33:08.460Z,75.94
2023-07-03T09:35:37.770Z,75.12
2023-07-03T09:38:12.612Z,72.15
2023-07-03T09:40:43.431Z,71.74
2023-07-03T09:43:20.233Z,73.95
2023-07-03T09:45:48.391Z,73.23
2023-07-03T09:48:27.393Z,74.19
2023-07-03T09:51:05.647Z,72.42
2023-07-03T09:53:38.834Z,72.87
2023-07-03T09:56:17.619Z,73.74
2023-07-03T09:58:49.656Z,66.76
2023-07-03T10:07:05.541Z,70.01
2023-07-03T10:12:22.549Z,68.51
2023-07-03T10:15:07.988Z,68.32
2023-07-03T10:17:59.488Z,69.40
2023-07-03T10:20:40.819Z,68.36
2023-07-03T10:23:10.965Z,68.46
2023-07-03T10:25:43.279Z,70.33
2023-07-03T10:28:16.918Z,72.08
2023-07-03T10:30:44.664Z,73.55
2023-07-03T10:33:16.303Z,69.14
2023-07-03T10:35:44.415Z,70.20
2023-07-03T10:38:35.120Z,68.31
2023-07-03T10:41:16.039Z,69.43
2023-07-03T10:43:56.128Z,68.39
2023-07-03T10:46:30.738Z,71.92
2023-07-03T10:49:04.152Z,68.40
2023-07-03T10:51:38.609Z,66.42
2023-07-03T10:54:15.546Z,65.67
2023-07-03T10:56:47.093Z,68.36
2023-07-03T10:59:14.136Z,64.49
2023-07-03T11:02:14.078Z,64.70
2023-07-03T11:04:53.271Z,64.41
2023-07-03T11:07:38.733Z,64.39
2023-07-03T11:10:27.453Z,65.11
2023-07-03T11:13:03.375Z,64.28
2023-07-03T11:15:59.187Z,65.61
2023-07-03T11:24:10.518Z,62.99
2023-07-03T11:29:13.297Z,64.47
2023-07-03T11:31:44.520Z,65.88
2023-07-03T11:37:02.720Z,61.76
2023-07-03T11:44:42.627Z,61.60
2023-07-03T11:47:29.008Z,62.50
2023-07-03T11:50:01.374Z,58.50
2023-07-03T11:52:31.264Z,58.94
2023-07-03T11:55:06.039Z,61.33
2023-07-03T11:57:37.013Z,59.39
2023-07-03T12:00:25.938Z,60.95
2023-07-03T12:03:03.538Z,60.44
2023-07-03T12:05:49.172Z,59.59
2023-07-03T12:08:19.375Z,60.18
2023-07-03T12:10:56.956Z,59.89
2023-07-03T12:13:43.233Z,59.25
2023-07-03T12:16:19.076Z,59.41
2023-07-03T12:18:56.215Z,60.07
2023-07-03T12:21:23.297Z,61.75
2023-07-03T12:23:50.899Z,62.12
2023-07-03T12:26:18.377Z,59.70
2023-07-03T12:28:47.420Z,62.55
2023-07-03T12:31:21.665Z,60.65
2023-07-03T12:34:01.320Z,61.97
2023-07-03T12:36:37.247Z,61.03
2023-07-03T12:39:14.626Z,59.86
2023-07-03T12:41:41.804Z,59.75
2023-07-03T12:44:12.052Z,60.69
2023-07-03T12:46:46.540Z,58.63
2023-07-03T12:49:16.745Z,57.92
2023-07-03T12:51:49.860Z,59.33
2023-07-03T12:54:17.042Z,59.29
2023-07-03T12:56:45.414Z,59.67
2023-07-03T12:59:17.454Z,59.43
2023-07-03T13:01:48.849Z,59.00
2023-07-03T13:04:17.141Z,57.56
2023-07-03T13:06:45.177Z,57.92
2023-07-03T13:09:14.142Z,58.83
2023-07-03T13:11:47.092Z,60.08
2023-07-03T13:14:18.474Z,58.08
2023-07-03T13:16:51.699Z,59.54
2023-07-03T13:19:32.441Z,56.92
2023-07-03T13:22:00.961Z,58.07
2023-07-03T13:24:29.633Z,58.60
2023-07-03T13:26:58.718Z,59.31
2023-07-03T13:29:31.590Z,58.16
2023-07-03T13:32:18.702Z,57.88
2023-07-03T13:34:53.479Z,56.55
2023-07-03T13:37:26.113Z,56.18
2023-07-03T13:40:01.098Z,56.18
2023-07-03T13:42:29.760Z,56.71
2023-07-03T13:44:57.060Z,54.22
2023-07-03T13:47:26.548Z,54.58
2023-07-03T13:49:56.228Z,54.34
2023-07-03T13:52:29.290Z,56.48
2023-07-03T13:54:56.389Z,55.62
2023-07-03T13:57:23.472Z,55.86
2023-07-03T13:59:50.593Z,56.22
2023-07-03T14:02:17.878Z,55.94
2023-07-03T14:04:44.937Z,53.42
2023-07-03T14:07:12.246Z,54.21
2023-07-03T14:09:39.337Z,54.20
2023-07-03T14:12:06.881Z,56.32
2023-07-03T14:14:34.025Z,57.98
2023-07-03T14:17:01.245Z,59.63
2023-07-03T14:19:28.351Z,58.54
2023-07-03T14:21:55.456Z,57.98
2023-07-03T14:24:22.309Z,57.73
2023-07-03T14:26:49.258Z,56.55
2023-07-03T14:29:16.273Z,55.68
2023-07-03T14:31:43.375Z,55.52
2023-07-03T14:34:10.800Z,54.33
2023-07-03T14:36:37.974Z,53.50
2023-07-03T14:39:04.895Z,53.44
2023-07-03T14:41:31.753Z,53.91
2023-07-03T14:43:58.838Z,53.74
2023-07-03T14:46:26.120Z,54.85
2023-07-03T14:48:53.262Z,53.72
2023-07-03T14:51:20.428Z,52.38
2023-07-03T14:53:47.867Z,53.15
2023-07-03T14:56:15.109Z,53.90
2023-07-03T14:58:42.696Z,52.54
2023-07-03T15:01:10.253Z,52.57
2023-07-03T15:03:37.345Z,53.09
2023-07-03T15:06:08.460Z,52.79
2023-07-03T15:08:35.558Z,52.32
2023-07-03T15:11:02.507Z,52.24
2023-07-03T15:13:29.834Z,52.04
2023-07-03T15:15:58.029Z,53.01
2023-07-03T15:18:25.297Z,53.05
2023-07-03T15:20:52.501Z,53.41
2023-07-03T15:23:19.773Z,53.52
2023-07-03T15:25:46.581Z,52.33
2023-07-03T15:28:13.735Z,51.79
2023-07-03T15:30:41.349Z,50.60
2023-07-03T15:33:09.133Z,50.13
2023-07-03T15:35:36.599Z,48.99
2023-07-03T15:38:04.051Z,48.95
2023-07-03T15:40:30.984Z,47.25
2023-07-03T15:42:58.265Z,46.75
2023-07-03T15:45:25.273Z,46.64
2023-07-03T15:47:52.762Z,46.59
2023-07-03T15:50:19.839Z,45.66
2023-07-03T15:52:46.899Z,45.53
2023-07-03T15:55:14.795Z,44.63
2023-07-03T15:57:42.149Z,44.26
2023-07-03T16:00:09.947Z,44.64
2023-07-03T16:02:38.509Z,43.96
2023-07-03T16:05:05.653Z,44.39
2023-07-03T16:07:32.848Z,44.54
2023-07-03T16:09:59.769Z,43.77
2023-07-03T16:12:26.940Z,43.75
2023-07-03T16:14:53.812Z,43.38
2023-07-03T16:17:20.785Z,43.09
2023-07-03T16:20:10.147Z,43.02
2023-07-03T16:22:38.400Z,43.02
2023-07-03T16:25:06.430Z,42.61
2023-07-03T16:27:33.610Z,42.97
2023-07-03T16:30:00.815Z,42.64
2023-07-03T16:32:30.698Z,42.66
2023-07-03T16:34:57.731Z,43.11
2023-07-03T16:37:25.140Z,43.91
2023-07-03T16:39:51.965Z,44.77
2023-07-03T16:42:18.962Z,45.10
2023-07-03T16:44:46.017Z,46.56
2023-07-03T16:47:12.914Z,47.38
2023-07-03T16:49:40.219Z,47.99
2023-07-03T16:52:07.458Z,49.06
2023-07-03T16:54:34.939Z,50.15
2023-07-03T16:57:01.777Z,50.16
2023-07-03T16:59:30.186Z,50.94
2023-07-03T17:01:57.519Z,51.64
2023-07-03T17:04:25.885Z,52.10
2023-07-03T17:06:53.081Z,52.62
2023-07-03T17:09:20.339Z,53.43
2023-07-03T17:11:47.858Z,53.77
2023-07-03T17:14:15.156Z,54.57
2023-07-03T17:16:42.605Z,55.06
2023-07-03T17:19:09.917Z,55.47
2023-07-03T17:21:38.364Z,56.08
2023-07-03T17:24:06.216Z,56.59
2023-07-03T17:26:34.117Z,57.05
2023-07-03T17:29:01.702Z,58.04
2023-07-03T17:31:28.890Z,59.46
2023-07-03T17:33:56.960Z,60.96
2023-07-03T17:36:25.014Z,62.42
2023-07-03T17:38:53.234Z,63.57
2023-07-03T17:41:20.748Z,64.53
2023-07-03T17:43:48.715Z,65.57
2023-07-03T17:46:17.254Z,66.07
2023-07-03T17:48:45.018Z,66.69
2023-07-03T17:51:12.598Z,67.21
2023-07-03T17:53:41.324Z,67.90
2023-07-03T17:56:08.331Z,68.59
2023-07-03T17:58:36.355Z,68.57
2023-07-03T18:01:04.883Z,69.33
2023-07-03T18:03:33.954Z,70.61
2023-07-03T18:06:01.416Z,71.42
2023-07-03T18:08:32.896Z,72.38
2023-07-03T18:11:00.681Z,73.51
2023-07-03T18:13:29.000Z,74.26
2023-07-03T18:15:56.576Z,75.24
2023-07-03T18:18:24.646Z,75.63
2023-07-03T18:20:51.643Z,76.65
2023-07-03T18:23:18.612Z,77.56
2023-07-03T18:25:48.609Z,78.09
2023-07-03T18:28:15.857Z,79.17
2023-07-03T18:30:43.000Z,80.29
2023-07-03T18:33:09.965Z,81.49
2023-07-03T18:35:37.447Z,82.83
2023-07-03T18:38:05.291Z,83.37
2023-07-03T18:40:32.705Z,84.08
2023-07-03T18:43:00.014Z,85.38
2023-07-03T18:45:26.979Z,85.49
2023-07-03T18:47:54.159Z,85.56
2023-07-03T18:50:21.598Z,86.29
2023-07-03T18:52:48.843Z,87.07
2023-07-03T18:55:16.226Z,87.80
2023-07-03T18:57:45.824Z,88.28
2023-07-03T19:00:15.232Z,88.92
2023-07-03T19:02:42.639Z,89.36
2023-07-03T19:05:10.034Z,88.54
2023-07-03T19:07:37.057Z,88.41
2023-07-03T19:10:17.544Z,88.66
2023-07-03T19:12:45.780Z,89.05
2023-07-03T19:15:13.058Z,89.84
2023-07-03T19:17:40.323Z,91.01
2023-07-03T19:20:08.036Z,90.35
2023-07-03T19:22:38.135Z,90.83
2023-07-03T19:25:06.692Z,91.86
2023-07-03T19:27:33.880Z,92.77
2023-07-03T19:30:00.909Z,92.77
2023-07-03T19:32:28.664Z,93.25
2023-07-03T19:34:55.855Z,93.24
2023-07-03T19:37:23.252Z,93.19
2023-07-03T19:39:50.780Z,92.95
2023-07-03T19:42:17.878Z,92.51
2023-07-03T19:44:46.024Z,91.93
2023-07-03T19:47:16.387Z,91.97
2023-07-03T19:49:43.415Z,90.94
2023-07-03T19:52:11.976Z,91.01
2023-07-03T19:54:39.352Z,90.94
2023-07-03T19:57:06.538Z,91.48
2023-07-03T19:59:33.950Z,92.22
2023-07-03T20:02:01.492Z,92.59
2023-07-03T20:04:29.230Z,93.13
2023-07-03T20:06:56.301Z,93.49
2023-07-03T20:09:23.240Z,94.73
2023-07-03T20:11:50.934Z,95.53
2023-07-03T20:14:18.205Z,95.43
2023-07-03T20:16:45.269Z,94.58
2023-07-03T20:19:12.810Z,94.31
2023-07-03T20:21:40.177Z,94.60
2023-07-03T20:24:07.199Z,94.60
2023-07-03T20:26:34.587Z,94.88
2023-07-03T20:29:01.880Z,94.33
2023-07-03T20:31:29.805Z,94.42
2023-07-03T20:33:56.865Z,94.46
2023-07-03T20:36:24.533Z,94.95
2023-07-03T20:38:51.380Z,96.48
2023-07-03T20:41:18.427Z,96.65
2023-07-03T20:43:45.819Z,96.00
2023-07-03T20:46:16.020Z,95.81
2023-07-03T20:48:45.908Z,96.53
2023-07-03T20:51:16.211Z,95.81
2023-07-03T20:53:53.829Z,95.21
2023-07-03T20:56:23.679Z,95.90
2023-07-03T20:58:58.911Z,95.99
2023-07-03T21:01:32.778Z,96.34
2023-07-03T21:04:01.567Z,95.96
2023-07-03T21:06:32.367Z,96.49
2023-07-03T21:09:00.710Z,97.49
2023-07-03T21:11:30.396Z,97.71
2023-07-03T21:14:00.442Z,97.55
2023-07-03T21:16:27.541Z,97.76
2023-07-03T21:18:54.624Z,99.04
2023-07-03T21:21:31.513Z,99.63
2023-07-03T21:24:00.368Z,100.00
2023-07-03T21:26:28.129Z,100.00
2023-07-03T21:28:55.637Z,100.00
2023-07-03T21:31:31.565Z,100.00
2023-07-03T21:33:59.075Z,100.00
2023-07-03T21:36:28.542Z,100.00
2023-07-03T21:39:00.544Z,100.00
2023-07-03T21:41:30.991Z,100.00
2023-07-03T21:44:00.500Z,100.00
2023-07-03T21:46:29.666Z,100.00
2023-07-03T21:48:57.188Z,100.00
2023-07-03T21:51:27.301Z,100.00
2023-07-03T21:53:55.201Z,100.00
2023-07-03T21:56:25.295Z,100.00
2023-07-03T21:58:54.101Z,100.00
2023-07-03T22:01:30.315Z,100.00
2023-07-03T22:03:59.051Z,100.00
2023-07-03T22:06:27.293Z,100.00
2023-07-03T22:08:55.122Z,100.00
2023-07-03T22:11:23.521Z,100.00
2023-07-03T22:13:51.266Z,100.00
2023-07-03T22:16:20.227Z,100.00
2023-07-03T22:18:48.574Z,100.00
2023-07-03T22:21:19.723Z,100.00
2023-07-03T22:23:51.616Z,100.00
2023-07-03T22:26:19.756Z,100.00
2023-07-03T22:28:50.267Z,100.00
2023-07-03T22:31:17.857Z,100.00
2023-07-03T22:33:44.988Z,100.00
2023-07-03T22:36:13.090Z,100.00
2023-07-03T22:38:40.858Z,100.00
2023-07-03T22:41:11.555Z,100.00
2023-07-03T22:43:40.550Z,100.00
2023-07-03T22:46:09.386Z,100.00
2023-07-03T22:48:43.817Z,100.00
2023-07-03T22:51:11.722Z,100.00
2023-07-03T22:53:38.963Z,100.00
2023-07-03T22:56:06.940Z,100.00
2023-07-03T22:58:34.479Z,100.00
2023-07-03T23:01:08.180Z,100.00
2023-07-03T23:03:35.325Z,100.00
2023-07-03T23:06:04.675Z,100.00
2023-07-03T23:08:34.137Z,100.00
2023-07-03T23:11:03.227Z,100.00
2023-07-03T23:13:31.450Z,100.00
2023-07-03T23:16:01.556Z,100.00
2023-07-03T23:18:32.466Z,100.00
2023-07-03T23:21:15.193Z,100.00
2023-07-03T23:23:42.913Z,100.00
2023-07-03T23:26:12.653Z,100.00
2023-07-03T23:28:43.092Z,100.00
2023-07-03T23:31:13.637Z,100.00
2023-07-03T23:33:42.655Z,100.00
2023-07-03T23:36:11.831Z,100.00
2023-07-03T23:38:40.765Z,100.00
2023-07-03T23:41:10.593Z,100.00
2023-07-03T23:43:38.586Z,100.00
2023-07-03T23:46:08.923Z,100.00
2023-07-03T23:48:38.232Z,100.00
2023-07-03T23:51:08.994Z,100.00
2023-07-03T23:53:41.071Z,100.00
2023-07-03T23:56:14.016Z,100.00
2023-07-03T23:58:43.080Z,100.00
